createdAt,value
2023-03-21T00:00:48.111Z,59.71
2023-03-21T00:03:51.711Z,59.52
2023-03-21T00:06:54.190Z,60.28
2023-03-21T00:10:01.898Z,60.94
2023-03-21T00:13:08.036Z,59.79
2023-03-21T00:16:20.266Z,59.87
2023-03-21T00:19:33.156Z,61.39
2023-03-21T00:22:36.596Z,60.28
2023-03-21T00:25:39.404Z,60.62
2023-03-21T00:28:43.340Z,60.76
2023-03-21T00:31:45.899Z,60.58
2023-03-21T00:35:01.396Z,61.67
2023-03-21T00:38:04.757Z,60.91
2023-03-21T00:41:20.911Z,60.08
2023-03-21T00:44:26.887Z,60.93
2023-03-21T00:47:30.486Z,60.04
2023-03-21T00:50:34.427Z,59.79
2023-03-21T00:53:36.980Z,60.97
2023-03-21T00:56:39.480Z,59.93
2023-03-21T00:59:42.144Z,61.18
2023-03-21T01:03:02.873Z,60.80
2023-03-21T01:06:07.788Z,60.80
2023-03-21T01:09:22.284Z,61.72
2023-03-21T01:12:27.627Z,61.26
2023-03-21T01:15:31.406Z,60.86
2023-03-21T01:18:35.524Z,60.58
2023-03-21T01:21:37.828Z,61.06
2023-03-21T01:24:52.078Z,61.73
2023-03-21T01:27:55.477Z,61.81
2023-03-21T01:31:02.012Z,61.09
2023-03-21T01:34:04.840Z,61.80
2023-03-21T01:37:07.522Z,61.76
2023-03-21T01:40:16.364Z,61.39
2023-03-21T01:43:31.361Z,61.96
2023-03-21T01:46:51.529Z,61.66
2023-03-21T01:50:03.322Z,62.67
2023-03-21T01:53:06.949Z,62.14
2023-03-21T01:56:18.308Z,62.31
2023-03-21T01:59:23.786Z,62.72
2023-03-21T02:02:31.458Z,62.92
2023-03-21T02:06:00.861Z,62.91
2023-03-21T02:09:09.298Z,62.49
2023-03-21T02:12:12.359Z,63.36
2023-03-21T02:15:16.073Z,63.03
2023-03-21T02:18:42.053Z,63.32
2023-03-21T02:22:21.761Z,62.94
2023-03-21T02:25:49.401Z,63.48
2023-03-21T02:28:59.757Z,63.41
2023-03-21T02:32:17.907Z,63.35
2023-03-21T02:35:56.849Z,63.60
2023-03-21T02:39:13.560Z,63.46
2023-03-21T02:42:43.365Z,62.59
2023-03-21T02:45:53.832Z,62.82
2023-03-21T02:49:07.002Z,63.39
2023-03-21T02:52:25.556Z,62.54
2023-03-21T02:55:33.261Z,63.79
2023-03-21T02:58:37.644Z,63.42
2023-03-21T03:01:40.595Z,63.48
2023-03-21T03:04:43.490Z,63.69
2023-03-21T03:07:46.005Z,63.57
2023-03-21T03:11:07.212Z,63.43
2023-03-21T03:14:42.037Z,62.64
2023-03-21T03:17:55.544Z,63.99
2023-03-21T03:21:19.178Z,62.87
2023-03-21T03:24:34.063Z,63.41
2023-03-21T03:27:40.694Z,63.77
2023-03-21T03:30:54.253Z,63.31
2023-03-21T03:34:07.141Z,63.57
2023-03-21T03:37:16.772Z,63.32
2023-03-21T03:40:28.317Z,63.29
2023-03-21T03:43:43.544Z,63.27
2023-03-21T03:46:58.355Z,63.06
2023-03-21T03:50:06.364Z,63.34
2023-03-21T03:53:30.674Z,63.13
2023-03-21T03:56:33.811Z,63.73
2023-03-21T03:59:38.687Z,63.65
2023-03-21T04:02:42.004Z,63.57
2023-03-21T04:05:46.421Z,63.52
2023-03-21T04:08:49.153Z,63.40
2023-03-21T04:11:52.071Z,63.31
2023-03-21T04:14:57.091Z,63.25
2023-03-21T04:18:04.944Z,63.97
2023-03-21T04:21:12.873Z,64.23
2023-03-21T04:24:16.136Z,64.10
2023-03-21T04:27:19.165Z,63.72
2023-03-21T04:30:24.934Z,63.98
2023-03-21T04:33:27.521Z,63.36
2023-03-21T04:36:39.421Z,64.29
2023-03-21T04:39:42.876Z,63.71
2023-03-21T04:42:47.620Z,64.08
2023-03-21T04:45:51.024Z,64.50
2023-03-21T04:48:53.787Z,64.31
2023-03-21T04:51:56.244Z,64.67
2023-03-21T04:54:58.856Z,64.43
2023-03-21T04:58:01.370Z,64.56
2023-03-21T05:01:05.980Z,64.41
2023-03-21T05:04:08.473Z,64.17
2023-03-21T05:07:11.469Z,64.47
2023-03-21T05:10:14.021Z,64.93
2023-03-21T05:13:16.793Z,64.95
2023-03-21T05:16:19.319Z,65.03
2023-03-21T05:19:25.865Z,64.43
2023-03-21T05:22:29.118Z,65.41
2023-03-21T05:25:34.725Z,65.06
2023-03-21T05:28:39.958Z,65.48
2023-03-21T05:31:44.926Z,65.41
2023-03-21T05:34:47.417Z,65.19
2023-03-21T05:37:50.139Z,65.29
2023-03-21T05:40:54.339Z,65.19
2023-03-21T05:43:56.989Z,65.40
2023-03-21T05:46:59.641Z,65.16
2023-03-21T05:50:03.143Z,64.75
2023-03-21T05:53:06.101Z,64.74
2023-03-21T05:56:09.326Z,64.29
2023-03-21T05:59:12.586Z,62.99
2023-03-21T06:02:16.117Z,63.36
2023-03-21T06:05:19.026Z,63.97
2023-03-21T06:08:21.525Z,63.14
2023-03-21T06:11:32.853Z,63.60
2023-03-21T06:14:37.675Z,62.82
2023-03-21T06:17:41.093Z,63.52
2023-03-21T06:20:44.829Z,62.86
2023-03-21T06:23:47.911Z,62.97
2023-03-21T06:26:50.233Z,62.12
2023-03-21T06:29:53.380Z,61.97
2023-03-21T06:32:56.252Z,62.14
2023-03-21T06:35:59.460Z,60.75
2023-03-21T06:39:02.421Z,60.40
2023-03-21T06:42:05.334Z,60.14
2023-03-21T06:45:08.907Z,59.91
2023-03-21T06:48:12.052Z,60.69
2023-03-21T06:51:16.515Z,59.46
2023-03-21T06:54:23.088Z,60.56
2023-03-21T06:57:25.847Z,59.59
2023-03-21T07:00:28.793Z,60.25
2023-03-21T07:03:31.743Z,59.28
2023-03-21T07:06:36.214Z,58.26
2023-03-21T07:09:39.947Z,58.53
2023-03-21T07:12:42.690Z,57.30
2023-03-21T07:15:46.303Z,57.08
2023-03-21T07:18:49.004Z,57.62
2023-03-21T07:21:51.306Z,56.63
2023-03-21T07:25:04.375Z,56.26
2023-03-21T07:28:09.275Z,56.49
2023-03-21T07:31:17.351Z,55.22
2023-03-21T07:34:19.752Z,54.62
2023-03-21T07:37:23.866Z,54.00
2023-03-21T07:40:31.158Z,53.19
2023-03-21T07:43:34.787Z,51.65
2023-03-21T07:46:38.186Z,52.48
2023-03-21T07:49:40.890Z,49.34
2023-03-21T07:52:43.286Z,49.66
2023-03-21T07:55:50.350Z,50.53
2023-03-21T07:58:52.616Z,48.46
2023-03-21T08:01:55.289Z,47.32
2023-03-21T08:04:57.916Z,44.50
2023-03-21T08:08:00.329Z,41.89
2023-03-21T08:11:04.505Z,38.42
2023-03-21T08:14:06.952Z,36.21
2023-03-21T08:17:10.399Z,33.91
2023-03-21T08:20:16.311Z,32.64
2023-03-21T08:23:19.060Z,31.49
2023-03-21T08:26:25.103Z,31.40
2023-03-21T08:29:27.986Z,31.35
2023-03-21T08:32:31.143Z,31.73
2023-03-21T08:35:37.818Z,31.58
2023-03-21T08:38:41.986Z,32.35
2023-03-21T08:41:44.613Z,32.37
2023-03-21T08:44:47.343Z,32.01
2023-03-21T08:47:50.425Z,31.70
2023-03-21T08:50:52.760Z,31.90
2023-03-21T08:53:55.360Z,32.04
2023-03-21T08:57:00.527Z,31.55
2023-03-21T09:00:17.131Z,31.33
2023-03-21T09:03:20.229Z,31.34
2023-03-21T09:06:24.738Z,30.57
2023-03-21T09:09:28.569Z,30.52
2023-03-21T09:12:31.432Z,31.26
2023-03-21T09:15:35.481Z,29.46
2023-03-21T09:18:49.454Z,28.30
2023-03-21T09:21:53.901Z,29.40
2023-03-21T09:24:57.549Z,30.80
2023-03-21T09:28:00.355Z,30.75
2023-03-21T09:31:04.023Z,30.21
2023-03-21T09:34:06.474Z,29.75
2023-03-21T09:37:13.834Z,29.64
2023-03-21T09:40:22.430Z,29.72
2023-03-21T09:43:57.128Z,28.71
2023-03-21T09:47:21.759Z,28.86
2023-03-21T09:50:32.065Z,27.75
2023-03-21T09:53:39.849Z,28.49
2023-03-21T09:56:44.983Z,30.68
2023-03-21T09:59:50.687Z,31.49
2023-03-21T10:02:59.791Z,29.84
2023-03-21T10:06:15.310Z,32.47
2023-03-21T10:09:22.986Z,28.99
2023-03-21T10:12:30.615Z,28.89
2023-03-21T10:15:33.248Z,28.15
2023-03-21T10:18:37.658Z,29.40
2023-03-21T10:22:03.377Z,27.14
2023-03-21T10:25:08.654Z,27.17
2023-03-21T10:28:18.721Z,27.14
2023-03-21T10:31:27.075Z,26.99
2023-03-21T10:38:06.544Z,25.64
2023-03-21T10:41:11.418Z,28.90
2023-03-21T10:44:17.832Z,25.90
2023-03-21T10:47:26.699Z,25.37
2023-03-21T10:50:30.263Z,24.86
2023-03-21T10:53:38.562Z,24.72
2023-03-21T10:56:49.911Z,24.73
2023-03-21T11:00:02.463Z,24.56
2023-03-21T11:03:05.676Z,24.47
2023-03-21T11:06:26.580Z,23.59
2023-03-21T11:09:44.310Z,24.23
2023-03-21T11:12:48.577Z,23.78
2023-03-21T11:15:58.583Z,24.13
2023-03-21T11:19:04.056Z,24.05
2023-03-21T11:22:08.196Z,24.02
2023-03-21T11:25:39.635Z,24.02
2023-03-21T11:28:44.913Z,24.32
2023-03-21T11:31:47.327Z,25.21
2023-03-21T11:35:16.882Z,24.82
2023-03-21T11:38:31.796Z,25.07
2023-03-21T11:41:35.518Z,25.39
2023-03-21T11:44:44.232Z,25.29
2023-03-21T11:47:49.465Z,25.22
2023-03-21T11:51:01.180Z,25.07
2023-03-21T11:54:36.400Z,25.03
2023-03-21T11:58:14.638Z,24.89
2023-03-21T12:01:39.061Z,24.93
2023-03-21T12:04:42.863Z,25.63
2023-03-21T12:07:45.545Z,25.75
2023-03-21T12:10:59.340Z,25.64
2023-03-21T12:14:24.914Z,26.04
2023-03-21T12:18:06.919Z,26.00
2023-03-21T12:21:15.763Z,27.11
2023-03-21T12:24:26.314Z,28.79
2023-03-21T12:28:09.974Z,28.88
2023-03-21T12:31:15.677Z,29.63
2023-03-21T12:34:46.445Z,30.08
2023-03-21T12:38:18.116Z,30.58
2023-03-21T12:41:41.282Z,31.61
2023-03-21T12:44:51.261Z,31.39
2023-03-21T12:48:00.370Z,32.12
2023-03-21T12:51:08.400Z,32.70
2023-03-21T12:54:21.925Z,31.51
2023-03-21T12:57:47.780Z,31.15
2023-03-21T13:01:01.600Z,30.53
2023-03-21T13:04:46.038Z,29.62
2023-03-21T13:08:10.033Z,30.26
2023-03-21T13:11:23.694Z,30.38
2023-03-21T13:14:34.049Z,30.71
2023-03-21T13:17:48.008Z,31.46
2023-03-21T13:20:55.047Z,31.93
2023-03-21T13:24:05.278Z,32.87
2023-03-21T13:27:26.138Z,34.06
2023-03-21T13:30:30.414Z,32.05
2023-03-21T13:33:34.653Z,32.44
2023-03-21T13:36:42.191Z,31.96
2023-03-21T13:39:49.004Z,31.66
2023-03-21T13:43:00.538Z,31.54
2023-03-21T13:46:25.703Z,31.86
2023-03-21T13:49:34.952Z,32.45
2023-03-21T13:52:37.280Z,32.55
2023-03-21T13:55:42.781Z,32.85
2023-03-21T13:58:45.709Z,31.99
2023-03-21T14:02:16.055Z,31.53
2023-03-21T14:05:22.870Z,31.73
2023-03-21T14:08:36.739Z,30.81
2023-03-21T14:11:44.576Z,30.81
2023-03-21T14:15:06.732Z,31.31
2023-03-21T14:18:28.152Z,32.08
2023-03-21T14:21:50.288Z,30.91
2023-03-21T14:25:00.860Z,30.49
2023-03-21T14:28:06.448Z,30.84
2023-03-21T14:31:16.127Z,29.73
2023-03-21T14:34:19.846Z,30.87
2023-03-21T14:37:28.557Z,29.89
2023-03-21T14:40:30.898Z,30.97
2023-03-21T14:43:34.375Z,31.82
2023-03-21T14:46:36.825Z,33.42
2023-03-21T14:49:39.480Z,32.91
2023-03-21T14:52:43.037Z,32.20
2023-03-21T14:55:50.834Z,32.77
2023-03-21T14:58:54.171Z,33.86
2023-03-21T15:01:57.299Z,33.08
2023-03-21T15:05:09.870Z,33.90
2023-03-21T15:08:12.502Z,36.37
2023-03-21T15:11:15.540Z,32.72
2023-03-21T15:14:23.433Z,32.49
2023-03-21T15:17:26.826Z,32.73
2023-03-21T15:20:31.964Z,32.79
2023-03-21T15:23:43.203Z,33.30
2023-03-21T15:26:48.086Z,35.50
2023-03-21T15:29:54.179Z,34.67
2023-03-21T15:32:59.250Z,34.98
2023-03-21T15:36:08.532Z,35.39
2023-03-21T15:39:15.816Z,36.74
2023-03-21T15:42:37.483Z,38.51
2023-03-21T15:45:50.514Z,39.81
2023-03-21T15:49:08.264Z,38.59
2023-03-21T15:52:15.822Z,38.17
2023-03-21T15:55:52.262Z,40.08
2023-03-21T15:58:54.919Z,40.08
2023-03-21T16:01:57.527Z,38.89
2023-03-21T16:05:03.241Z,38.86
2023-03-21T16:08:22.392Z,39.12
2023-03-21T16:11:26.394Z,39.36
2023-03-21T16:14:29.245Z,40.38
2023-03-21T16:17:37.628Z,39.48
2023-03-21T16:20:43.341Z,42.14
2023-03-21T16:23:47.229Z,40.39
2023-03-21T16:26:52.183Z,40.05
2023-03-21T16:29:54.824Z,41.44
2023-03-21T16:32:57.447Z,40.24
2023-03-21T16:36:00.972Z,40.38
2023-03-21T16:39:15.935Z,41.82
2023-03-21T16:42:18.582Z,40.71
2023-03-21T16:45:21.455Z,42.26
2023-03-21T16:48:24.144Z,41.44
2023-03-21T16:51:33.357Z,43.30
2023-03-21T16:54:36.222Z,45.23
2023-03-21T16:57:39.335Z,44.05
2023-03-21T17:00:42.156Z,42.05
2023-03-21T17:03:45.429Z,45.02
2023-03-21T17:06:53.938Z,43.10
2023-03-21T17:09:56.340Z,42.61
2023-03-21T17:12:59.076Z,43.00
2023-03-21T17:16:01.415Z,43.20
2023-03-21T17:19:11.444Z,44.04
2023-03-21T17:22:14.740Z,44.20
2023-03-21T17:25:18.519Z,44.92
2023-03-21T17:28:21.006Z,46.20
2023-03-21T17:31:25.813Z,43.92
2023-03-21T17:34:28.198Z,44.22
2023-03-21T17:37:30.886Z,44.26
2023-03-21T17:40:34.491Z,43.60
2023-03-21T17:43:37.031Z,44.85
2023-03-21T17:46:39.535Z,45.15
2023-03-21T17:49:42.345Z,45.63
2023-03-21T17:52:45.068Z,45.73
2023-03-21T17:55:47.665Z,46.44
2023-03-21T17:58:50.065Z,44.94
2023-03-21T18:01:52.713Z,46.06
2023-03-21T18:04:56.215Z,45.55
2023-03-21T18:08:13.878Z,45.05
2023-03-21T18:11:18.624Z,45.04
2023-03-21T18:14:27.902Z,45.46
2023-03-21T18:17:31.285Z,45.80
2023-03-21T18:23:56.490Z,45.84
2023-03-21T18:26:58.863Z,46.97
2023-03-21T18:30:28.647Z,47.31
2023-03-21T18:33:24.391Z,46.71
2023-03-21T18:36:28.935Z,46.61
2023-03-21T18:39:33.209Z,46.84
2023-03-21T18:42:36.893Z,45.95
2023-03-21T18:45:39.417Z,46.96
2023-03-21T18:48:42.797Z,47.15
2023-03-21T18:51:47.115Z,46.04
2023-03-21T18:54:49.912Z,47.17
2023-03-21T18:57:53.978Z,47.00
2023-03-21T19:00:58.028Z,46.12
2023-03-21T19:04:21.403Z,46.12
2023-03-21T19:07:25.982Z,47.68
2023-03-21T19:10:28.456Z,47.75
2023-03-21T19:13:31.659Z,46.89
2023-03-21T19:16:48.697Z,47.77
2023-03-21T19:19:56.728Z,47.22
2023-03-21T19:22:59.173Z,48.30
2023-03-21T19:26:01.857Z,47.42
2023-03-21T19:29:07.572Z,47.88
2023-03-21T19:32:10.635Z,48.82
2023-03-21T19:35:14.315Z,48.59
2023-03-21T19:38:17.098Z,47.74
2023-03-21T19:41:20.453Z,47.51
2023-03-21T19:44:23.140Z,48.48
2023-03-21T19:47:25.615Z,48.40
2023-03-21T19:53:53.402Z,48.22
2023-03-21T19:56:56.200Z,47.99
2023-03-21T19:59:58.696Z,48.58
2023-03-21T20:03:01.683Z,48.12
2023-03-21T20:06:08.224Z,48.20
2023-03-21T20:09:49.767Z,47.72
2023-03-21T20:12:33.503Z,48.66
2023-03-21T20:15:45.871Z,48.13
2023-03-21T20:18:52.451Z,50.55
2023-03-21T20:21:59.384Z,48.78
2023-03-21T20:25:08.479Z,49.61
2023-03-21T20:28:17.153Z,49.86
2023-03-21T20:31:27.162Z,48.70
2023-03-21T20:34:30.616Z,49.73
2023-03-21T20:37:34.710Z,50.04
2023-03-21T20:40:38.173Z,50.14
2023-03-21T20:47:05.450Z,49.87
2023-03-21T20:50:11.755Z,50.02
2023-03-21T20:53:14.132Z,50.54
2023-03-21T20:56:16.737Z,50.68
2023-03-21T20:59:26.538Z,50.68
2023-03-21T21:02:30.110Z,50.47
2023-03-21T21:05:34.894Z,49.59
2023-03-21T21:08:38.685Z,50.51
2023-03-21T21:15:03.890Z,50.31
2023-03-21T21:18:07.648Z,50.80
2023-03-21T21:21:11.140Z,50.78
2023-03-21T21:24:14.830Z,49.89
2023-03-21T21:27:17.549Z,51.25
2023-03-21T21:30:20.233Z,51.25
2023-03-21T21:33:22.879Z,51.37
2023-03-21T21:36:25.954Z,51.70
2023-03-21T21:39:31.505Z,51.60
2023-03-21T21:42:38.320Z,51.48
2023-03-21T21:45:42.120Z,51.06
2023-03-21T21:48:45.248Z,51.77
2023-03-21T21:51:48.095Z,52.20
2023-03-21T21:54:50.993Z,51.86
2023-03-21T21:57:58.043Z,52.13
2023-03-21T22:01:01.806Z,52.35
2023-03-21T22:04:08.434Z,52.40
2023-03-21T22:07:14.248Z,52.49
2023-03-21T22:10:17.082Z,52.53
2023-03-21T22:13:19.446Z,52.77
2023-03-21T22:16:22.383Z,52.13
2023-03-21T22:19:24.834Z,52.55
2023-03-21T22:22:27.537Z,52.18
2023-03-21T22:25:33.109Z,52.16
2023-03-21T22:28:39.190Z,51.90
2023-03-21T22:31:42.530Z,52.28
2023-03-21T22:34:45.619Z,52.06
2023-03-21T22:37:48.469Z,52.38
2023-03-21T22:40:59.573Z,51.58
2023-03-21T22:44:02.311Z,52.39
2023-03-21T22:47:08.142Z,52.64
2023-03-21T22:50:11.140Z,52.75
2023-03-21T22:53:14.028Z,52.94
2023-03-21T22:56:16.385Z,52.76
2023-03-21T22:59:19.078Z,53.15
2023-03-21T23:02:21.525Z,53.30
2023-03-21T23:05:24.102Z,53.41
2023-03-21T23:08:27.163Z,53.48
2023-03-21T23:11:29.786Z,53.34
2023-03-21T23:14:32.239Z,53.67
2023-03-21T23:17:35.551Z,54.09
2023-03-21T23:20:38.365Z,54.64
2023-03-21T23:23:41.817Z,54.69
2023-03-21T23:26:44.229Z,54.44
2023-03-21T23:29:47.092Z,54.53
2023-03-21T23:32:49.411Z,54.02
2023-03-21T23:35:52.043Z,54.69
2023-03-21T23:38:54.419Z,54.65
2023-03-21T23:41:58.668Z,54.58
2023-03-21T23:45:01.273Z,55.47
2023-03-21T23:48:04.055Z,55.59
2023-03-21T23:51:06.715Z,55.27
2023-03-21T23:54:09.900Z,56.01
2023-03-21T23:57:12.689Z,55.95
